createdAt,value
2019-01-20T00:00:16.426Z,27.4
2019-01-20T00:01:06.463Z,27.4
2019-01-20T00:01:56.801Z,27.4
2019-01-20T00:02:46.869Z,27.5
2019-01-20T00:03:36.964Z,27.5
2019-01-20T00:04:26.461Z,27.5
2019-01-20T00:05:16.211Z,27.5
2019-01-20T00:06:06.862Z,27.5
2019-01-20T00:06:57.416Z,27.5
2019-01-20T00:07:47.738Z,27.4
2019-01-20T00:08:36.751Z,27.4
2019-01-20T00:09:26.769Z,27.4
2019-01-20T00:10:17.713Z,27.4
2019-01-20T00:11:06.858Z,27.3
2019-01-20T00:11:57.761Z,27.2
2019-01-20T00:12:47.875Z,27.1
2019-01-20T00:13:38.191Z,27
2019-01-20T00:14:28.223Z,26.9
2019-01-20T00:15:18.281Z,26.8
2019-01-20T00:16:07.763Z,26.8
2019-01-20T00:16:57.861Z,26.7
2019-01-20T00:17:47.598Z,26.8
2019-01-20T00:18:38.517Z,26.8
2019-01-20T00:19:28.025Z,26.8
2019-01-20T00:20:18.933Z,26.8
2019-01-20T00:21:08.172Z,26.8
2019-01-20T00:21:58.778Z,26.8
2019-01-20T00:22:48.231Z,26.9
2019-01-20T00:23:38.587Z,26.9
2019-01-20T00:24:27.835Z,26.9
2019-01-20T00:25:18.380Z,27.1
2019-01-20T00:26:08.210Z,27.1
2019-01-20T00:26:58.792Z,27.2
2019-01-20T00:27:48.610Z,27.2
2019-01-20T00:28:38.337Z,27.3
2019-01-20T00:29:29.012Z,27.4
2019-01-20T00:30:19.020Z,27.4
2019-01-20T00:31:08.782Z,27.4
2019-01-20T00:31:58.917Z,27.4
2019-01-20T00:32:48.430Z,27.4
2019-01-20T00:33:39.560Z,27.4
2019-01-20T00:34:29.724Z,27.4
2019-01-20T00:35:21.335Z,27.4
2019-01-20T00:36:09.412Z,27.4
2019-01-20T00:36:59.467Z,27.4
2019-01-20T00:37:49.271Z,27.4
2019-01-20T00:38:39.359Z,27.3
2019-01-20T00:39:29.087Z,27.3
2019-01-20T00:40:19.164Z,27.1
2019-01-20T00:41:09.510Z,27
2019-01-20T00:41:59.864Z,26.9
2019-01-20T00:42:48.769Z,26.8
2019-01-20T00:43:39.655Z,26.7
2019-01-20T00:44:28.608Z,26.6
2019-01-20T00:45:18.694Z,26.6
2019-01-20T00:46:09.566Z,26.7
2019-01-20T00:46:59.896Z,26.7
2019-01-20T00:47:49.683Z,26.8
2019-01-20T00:48:39.730Z,26.8
2019-01-20T00:49:30.049Z,26.8
2019-01-20T00:50:19.566Z,26.8
2019-01-20T00:51:09.875Z,26.8
2019-01-20T00:51:59.943Z,26.9
2019-01-20T00:52:50.287Z,26.9
2019-01-20T00:53:40.063Z,26.9
2019-01-20T00:54:30.126Z,27.1
2019-01-20T00:55:19.917Z,27.1
2019-01-20T00:56:10.550Z,27.1
2019-01-20T00:57:00.843Z,27.2
2019-01-20T00:57:50.689Z,27.3
2019-01-20T00:58:40.258Z,27.3
2019-01-20T00:59:29.922Z,27.4
2019-01-20T01:00:20.573Z,27.3
2019-01-20T01:01:10.628Z,27.4
2019-01-20T01:02:00.385Z,27.4
2019-01-20T01:02:51.480Z,27.4
2019-01-20T01:03:40.754Z,27.4
2019-01-20T01:04:31.109Z,27.3
2019-01-20T01:05:21.152Z,27.3
2019-01-20T01:06:11.790Z,27.3
2019-01-20T01:07:00.982Z,27.3
2019-01-20T01:07:50.795Z,27.1
2019-01-20T01:08:41.432Z,27
2019-01-20T01:09:31.718Z,26.9
2019-01-20T01:10:21.030Z,26.8
2019-01-20T01:11:11.537Z,26.7
2019-01-20T01:12:01.894Z,26.6
2019-01-20T01:12:51.455Z,26.6
2019-01-20T01:13:41.727Z,26.6
2019-01-20T01:14:31.854Z,26.6
2019-01-20T01:15:20.734Z,26.6
2019-01-20T01:16:11.326Z,26.7
2019-01-20T01:17:02.219Z,26.7
2019-01-20T01:17:52.324Z,26.7
2019-01-20T01:18:42.081Z,26.7
2019-01-20T01:19:31.576Z,26.8
2019-01-20T01:20:22.201Z,26.8
2019-01-20T01:21:11.956Z,26.9
2019-01-20T01:22:01.201Z,26.9
2019-01-20T01:22:52.361Z,27
2019-01-20T01:23:41.581Z,27.1
2019-01-20T01:24:32.186Z,27.1
2019-01-20T01:25:22.821Z,27.2
2019-01-20T01:26:12.296Z,27.3
2019-01-20T01:27:01.021Z,27.2
2019-01-20T01:27:52.423Z,27.1
2019-01-20T01:28:41.987Z,27.1
2019-01-20T01:29:32.548Z,27.1
2019-01-20T01:30:22.307Z,27
2019-01-20T01:31:12.667Z,26.9
2019-01-20T01:32:02.155Z,26.9
2019-01-20T01:32:53.103Z,26.9
2019-01-20T01:33:43.101Z,26.9
2019-01-20T01:34:32.338Z,26.8
2019-01-20T01:35:22.803Z,26.8
2019-01-20T01:36:13.280Z,26.8
2019-01-20T01:37:02.775Z,26.8
2019-01-20T01:37:52.835Z,26.9
2019-01-20T01:38:43.490Z,26.9
2019-01-20T01:39:33.531Z,26.9
2019-01-20T01:40:22.730Z,27
2019-01-20T01:41:13.045Z,27.1
2019-01-20T01:42:03.715Z,27.1
2019-01-20T01:42:53.720Z,27.3
2019-01-20T01:43:43.803Z,27.3
2019-01-20T01:44:33.621Z,27.3
2019-01-20T01:45:24.195Z,27.3
2019-01-20T01:46:12.920Z,27.3
2019-01-20T01:47:04.008Z,27.3
2019-01-20T01:47:53.840Z,27.3
2019-01-20T01:48:44.472Z,27.3
2019-01-20T01:49:32.789Z,27.3
2019-01-20T01:50:23.794Z,27.2
2019-01-20T01:51:13.820Z,27.2
2019-01-20T01:52:04.549Z,27.1
2019-01-20T01:52:53.666Z,26.9
2019-01-20T01:53:44.047Z,26.8
2019-01-20T01:54:34.322Z,26.7
2019-01-20T01:55:23.566Z,26.6
2019-01-20T01:56:14.136Z,26.6
2019-01-20T01:57:04.987Z,26.4
2019-01-20T01:57:53.936Z,26.5
2019-01-20T01:58:44.818Z,26.5
2019-01-20T01:59:34.603Z,26.6
2019-01-20T02:00:24.448Z,26.6
2019-01-20T02:01:14.514Z,26.6
2019-01-20T02:02:05.104Z,26.6
2019-01-20T02:02:55.399Z,26.6
2019-01-20T02:03:44.861Z,26.7
2019-01-20T02:04:35.511Z,26.7
2019-01-20T02:05:24.723Z,26.8
2019-01-20T02:06:15.063Z,26.8
2019-01-20T02:07:04.561Z,26.9
2019-01-20T02:07:55.778Z,26.9
2019-01-20T02:08:46.109Z,27.1
2019-01-20T02:09:35.605Z,27.1
2019-01-20T02:10:25.918Z,27.1
2019-01-20T02:11:14.308Z,27.1
2019-01-20T02:12:04.953Z,27.2
2019-01-20T02:12:55.812Z,27.2
2019-01-20T02:13:45.288Z,27.2
2019-01-20T02:14:35.903Z,27.2
2019-01-20T02:15:25.990Z,27.2
2019-01-20T02:16:15.465Z,27.2
2019-01-20T02:17:06.088Z,27.1
2019-01-20T02:17:56.410Z,27.1
2019-01-20T02:18:46.190Z,27.1
2019-01-20T02:19:36.227Z,27
2019-01-20T02:20:26.333Z,26.9
2019-01-20T02:21:16.674Z,26.8
2019-01-20T02:22:06.987Z,26.8
2019-01-20T02:22:56.209Z,26.6
2019-01-20T02:23:45.980Z,26.5
2019-01-20T02:24:36.303Z,26.4
2019-01-20T02:25:26.419Z,26.5
2019-01-20T02:26:16.759Z,26.5
2019-01-20T02:27:06.767Z,26.5
2019-01-20T02:27:56.822Z,26.6
2019-01-20T02:28:47.209Z,26.6
2019-01-20T02:29:36.670Z,26.6
2019-01-20T02:30:27.429Z,26.6
2019-01-20T02:31:16.249Z,26.6
2019-01-20T02:32:06.610Z,26.7
2019-01-20T02:32:57.006Z,26.8
2019-01-20T02:33:46.229Z,26.8
2019-01-20T02:34:37.054Z,26.9
2019-01-20T02:35:26.809Z,26.9
2019-01-20T02:36:17.741Z,27
2019-01-20T02:37:07.807Z,27.1
2019-01-20T02:37:57.379Z,27.1
2019-01-20T02:38:46.731Z,27.1
2019-01-20T02:39:37.434Z,27.2
2019-01-20T02:40:28.100Z,27.1
2019-01-20T02:41:16.959Z,27.2
2019-01-20T02:42:07.315Z,27.1
2019-01-20T02:42:57.919Z,27.1
2019-01-20T02:43:47.497Z,27.1
2019-01-20T02:44:37.981Z,27.1
2019-01-20T02:45:28.062Z,27.1
2019-01-20T02:46:17.953Z,27
2019-01-20T02:47:08.710Z,26.9
2019-01-20T02:47:58.326Z,26.8
2019-01-20T02:48:47.473Z,26.6
2019-01-20T02:49:38.618Z,26.5
2019-01-20T02:50:27.887Z,26.4
2019-01-20T02:51:18.798Z,26.4
2019-01-20T02:52:08.265Z,26.4
2019-01-20T02:52:57.798Z,26.4
2019-01-20T02:53:48.906Z,26.4
2019-01-20T02:54:38.165Z,26.5
2019-01-20T02:55:28.778Z,26.5
2019-01-20T02:56:18.014Z,26.5
2019-01-20T02:57:08.641Z,26.6
2019-01-20T02:57:58.980Z,26.6
2019-01-20T02:58:49.008Z,26.6
2019-01-20T02:59:38.206Z,26.7
2019-01-20T03:00:28.890Z,26.8
2019-01-20T03:01:18.402Z,26.8
2019-01-20T03:02:09.500Z,26.9
2019-01-20T03:02:59.565Z,26.9
2019-01-20T03:03:48.569Z,27
2019-01-20T03:04:39.108Z,27.1
2019-01-20T03:05:28.602Z,27.1
2019-01-20T03:08:44.172Z,27.2
2019-01-20T03:09:33.639Z,27.2
2019-01-20T03:10:23.999Z,27.2
2019-01-20T03:11:14.305Z,27.2
2019-01-20T03:12:11.354Z,27.1
2019-01-20T03:12:53.824Z,27.1
2019-01-20T03:13:44.154Z,27.1
2019-01-20T03:14:34.259Z,27
2019-01-20T03:15:24.306Z,26.9
2019-01-20T03:16:14.410Z,26.8
2019-01-20T03:17:03.926Z,26.6
2019-01-20T03:17:54.750Z,26.5
2019-01-20T03:18:44.496Z,26.4
2019-01-20T03:19:34.847Z,26.4
2019-01-20T03:20:24.621Z,26.4
2019-01-20T03:21:14.174Z,26.4
2019-01-20T03:22:04.466Z,26.5
2019-01-20T03:22:54.602Z,26.5
2019-01-20T03:23:44.647Z,26.5
2019-01-20T03:24:35.176Z,26.5
2019-01-20T03:25:24.706Z,26.6
2019-01-20T03:26:15.455Z,26.6
2019-01-20T03:27:04.833Z,26.7
2019-01-20T03:27:55.172Z,26.8
2019-01-20T03:28:44.908Z,26.8
2019-01-20T03:29:35.343Z,26.8
2019-01-20T03:30:25.377Z,26.9
2019-01-20T03:31:14.963Z,26.9
2019-01-20T03:32:05.691Z,26.9
2019-01-20T03:32:55.521Z,26.8
2019-01-20T03:33:45.878Z,26.8
2019-01-20T03:34:35.943Z,26.7
2019-01-20T03:35:25.760Z,26.7
2019-01-20T03:36:15.758Z,26.6
2019-01-20T03:37:06.059Z,26.6
2019-01-20T03:37:56.128Z,26.6
2019-01-20T03:38:45.844Z,26.6
2019-01-20T03:39:35.981Z,26.5
2019-01-20T03:40:26.264Z,26.5
2019-01-20T03:41:16.370Z,26.4
2019-01-20T03:42:14.861Z,26.4
2019-01-20T03:42:56.162Z,26.4
2019-01-20T03:43:46.510Z,26.5
2019-01-20T03:44:36.307Z,26.6
2019-01-20T03:45:25.923Z,26.6
2019-01-20T03:46:16.422Z,26.7
2019-01-20T03:47:06.562Z,26.8
2019-01-20T03:47:55.719Z,26.8
2019-01-20T03:48:46.583Z,26.9
2019-01-20T03:49:36.892Z,26.9
2019-01-20T03:50:26.704Z,27
2019-01-20T03:51:16.194Z,27.1
2019-01-20T03:52:06.794Z,27.1
2019-01-20T03:52:56.832Z,27.1
2019-01-20T03:53:46.919Z,27.1
2019-01-20T03:54:36.724Z,27.1
2019-01-20T03:55:26.546Z,27.1
2019-01-20T03:56:16.789Z,27.1
2019-01-20T03:57:06.302Z,27
2019-01-20T03:57:56.930Z,27
2019-01-20T03:58:47.514Z,26.9
2019-01-20T03:59:37.563Z,26.8
2019-01-20T04:00:27.531Z,26.7
2019-01-20T04:01:17.681Z,26.6
2019-01-20T04:02:07.746Z,26.5
2019-01-20T04:02:56.542Z,26.4
2019-01-20T04:03:47.636Z,26.3
2019-01-20T04:04:37.111Z,26.3
2019-01-20T04:05:27.851Z,26.4
2019-01-20T04:06:17.241Z,26.4
2019-01-20T04:07:08.069Z,26.4
2019-01-20T04:07:59.941Z,26.4
2019-01-20T04:08:47.393Z,26.4
2019-01-20T04:09:38.041Z,26.5
2019-01-20T04:10:27.849Z,26.6
2019-01-20T04:11:17.858Z,26.6
2019-01-20T04:12:08.446Z,26.6
2019-01-20T04:12:58.590Z,26.7
2019-01-20T04:13:48.091Z,26.8
2019-01-20T04:14:37.765Z,26.8
2019-01-20T04:15:28.693Z,26.9
2019-01-20T04:16:18.420Z,27
2019-01-20T04:17:08.795Z,27
2019-01-20T04:17:58.571Z,27.1
2019-01-20T04:18:48.612Z,27.1
2019-01-20T04:19:38.465Z,27.1
2019-01-20T04:20:28.770Z,27.1
2019-01-20T04:21:18.555Z,27.1
2019-01-20T04:22:09.085Z,27.1
2019-01-20T04:22:58.389Z,27.1
2019-01-20T04:23:51.180Z,27.1
2019-01-20T04:24:39.266Z,27.1
2019-01-20T04:25:29.587Z,27.1
2019-01-20T04:26:19.127Z,26.9
2019-01-20T04:27:08.900Z,26.9
2019-01-20T04:27:59.530Z,26.8
2019-01-20T04:28:49.699Z,26.6
2019-01-20T04:29:39.365Z,26.5
2019-01-20T04:30:29.902Z,26.4
2019-01-20T04:31:19.217Z,26.4
2019-01-20T04:32:08.760Z,26.4
2019-01-20T04:32:59.620Z,26.4
2019-01-20T04:33:49.927Z,26.4
2019-01-20T04:34:39.421Z,26.4
2019-01-20T04:35:29.834Z,26.4
2019-01-20T04:36:19.541Z,26.5
2019-01-20T04:37:10.177Z,26.6
2019-01-20T04:37:59.956Z,26.6
2019-01-20T04:38:50.268Z,26.6
2019-01-20T04:39:40.074Z,26.7
2019-01-20T04:40:29.891Z,26.8
2019-01-20T04:41:19.941Z,26.8
2019-01-20T04:42:10.622Z,26.9
2019-01-20T04:43:00.335Z,26.9
2019-01-20T04:43:50.364Z,27
2019-01-20T04:44:40.123Z,27.1
2019-01-20T04:45:30.423Z,27.1
2019-01-20T04:46:20.301Z,27.1
2019-01-20T04:47:10.542Z,27.1
2019-01-20T04:48:00.308Z,27.1
2019-01-20T04:48:50.383Z,27.1
2019-01-20T04:49:40.148Z,27.1
2019-01-20T04:50:31.166Z,27.1
2019-01-20T04:51:20.804Z,27.1
2019-01-20T04:52:10.898Z,27.1
2019-01-20T04:53:00.410Z,27.1
2019-01-20T04:53:50.503Z,26.9
2019-01-20T04:54:41.105Z,26.8
2019-01-20T04:55:31.133Z,26.7
2019-01-20T04:56:21.489Z,26.6
2019-01-20T04:57:11.060Z,26.4
2019-01-20T04:58:01.012Z,26.4
2019-01-20T04:58:51.070Z,26.3
2019-01-20T04:59:41.140Z,26.3
2019-01-20T05:00:31.500Z,26.3
2019-01-20T05:01:21.545Z,26.4
2019-01-20T05:02:11.651Z,26.4
2019-01-20T05:03:01.389Z,26.4
2019-01-20T05:03:50.901Z,26.4
2019-01-20T05:04:41.462Z,26.5
2019-01-20T05:05:31.824Z,26.5
2019-01-20T05:06:21.875Z,26.6
2019-01-20T05:07:11.944Z,26.6
2019-01-20T05:08:01.994Z,26.7
2019-01-20T05:08:52.022Z,26.7
2019-01-20T05:09:42.119Z,26.8
2019-01-20T05:10:32.224Z,26.8
2019-01-20T05:11:22.197Z,26.9
2019-01-20T05:12:12.014Z,26.9
2019-01-20T05:13:02.596Z,27
2019-01-20T05:13:52.104Z,27.1
2019-01-20T05:14:42.705Z,27.1
2019-01-20T05:15:32.512Z,27.1
2019-01-20T05:16:22.549Z,27.1
2019-01-20T05:17:12.866Z,27.1
2019-01-20T05:18:02.749Z,27
2019-01-20T05:18:52.993Z,27
2019-01-20T05:19:42.453Z,27
2019-01-20T05:20:32.879Z,27
2019-01-20T05:21:22.899Z,26.9
2019-01-20T05:22:12.670Z,26.8
2019-01-20T05:23:03.316Z,26.6
2019-01-20T05:23:52.469Z,26.4
2019-01-20T05:24:43.098Z,26.4
2019-01-20T05:25:33.467Z,26.3
2019-01-20T05:26:23.343Z,26.3
2019-01-20T05:27:13.509Z,26.3
2019-01-20T05:28:03.617Z,26.3
2019-01-20T05:28:52.856Z,26.4
2019-01-20T05:29:43.735Z,26.4
2019-01-20T05:30:33.555Z,26.4
2019-01-20T05:31:23.603Z,26.4
2019-01-20T05:32:13.661Z,26.5
2019-01-20T05:33:03.570Z,26.5
2019-01-20T05:33:53.428Z,26.6
2019-01-20T05:34:44.116Z,26.6
2019-01-20T05:35:33.873Z,26.6
2019-01-20T05:36:23.354Z,26.6
2019-01-20T05:37:13.752Z,26.6
2019-01-20T05:38:04.091Z,26.6
2019-01-20T05:38:53.547Z,26.5
2019-01-20T05:39:43.566Z,26.5
2019-01-20T05:40:34.292Z,26.4
2019-01-20T05:41:24.077Z,26.4
2019-01-20T05:42:14.149Z,26.4
2019-01-20T05:43:03.896Z,26.4
2019-01-20T05:43:53.930Z,26.3
2019-01-20T05:44:44.014Z,26.3
2019-01-20T05:45:34.552Z,26.3
2019-01-20T05:46:24.619Z,26.3
2019-01-20T05:47:14.370Z,26.3
2019-01-20T05:48:04.194Z,26.3
2019-01-20T05:48:54.783Z,26.3
2019-01-20T05:49:45.179Z,26.4
2019-01-20T05:50:35.214Z,26.4
2019-01-20T05:51:25.185Z,26.4
2019-01-20T05:52:15.000Z,26.6
2019-01-20T05:53:05.047Z,26.6
2019-01-20T05:53:55.346Z,26.7
2019-01-20T05:54:45.169Z,26.8
2019-01-20T05:55:35.486Z,26.8
2019-01-20T05:56:25.008Z,26.9
2019-01-20T05:57:15.373Z,26.9
2019-01-20T05:58:05.511Z,27
2019-01-20T05:58:55.148Z,27
2019-01-20T05:59:45.816Z,27
2019-01-20T06:00:35.602Z,27
2019-01-20T06:01:27.296Z,27
2019-01-20T06:02:15.996Z,27
2019-01-20T06:03:05.746Z,26.9
2019-01-20T06:03:55.801Z,26.9
2019-01-20T06:06:42.788Z,26.6
2019-01-20T06:07:33.443Z,26.4
2019-01-20T06:08:23.467Z,26.3
2019-01-20T06:09:13.776Z,26.3
2019-01-20T06:10:03.598Z,26.2
2019-01-20T06:10:53.875Z,26.2
2019-01-20T06:11:43.428Z,26.3
2019-01-20T06:12:33.530Z,26.3
2019-01-20T06:13:23.541Z,26.4
2019-01-20T06:14:13.015Z,26.4
2019-01-20T06:15:03.710Z,26.4
2019-01-20T06:15:53.442Z,26.4
2019-01-20T06:16:43.493Z,26.5
2019-01-20T06:17:34.398Z,26.5
2019-01-20T06:18:24.750Z,26.6
2019-01-20T06:19:14.276Z,26.7
2019-01-20T06:20:03.947Z,26.8
2019-01-20T06:20:54.010Z,26.8
2019-01-20T06:21:43.258Z,26.8
2019-01-20T06:22:35.699Z,26.9
2019-01-20T06:23:24.920Z,27
2019-01-20T06:24:14.251Z,27.1
2019-01-20T06:25:04.123Z,27.1
2019-01-20T06:25:54.386Z,27.1
2019-01-20T06:26:44.675Z,27.1
2019-01-20T06:27:34.745Z,27.1
2019-01-20T06:28:25.354Z,27.1
2019-01-20T06:29:14.610Z,27
2019-01-20T06:30:04.137Z,27
2019-01-20T06:30:54.982Z,26.9
2019-01-20T06:31:45.099Z,26.8
2019-01-20T06:32:49.802Z,26.6
2019-01-20T06:33:25.566Z,26.5
2019-01-20T06:34:14.949Z,26.4
2019-01-20T06:35:04.808Z,26.3
2019-01-20T06:35:55.657Z,26.2
2019-01-20T06:36:45.142Z,26.1
2019-01-20T06:37:35.709Z,26.1
2019-01-20T06:38:24.938Z,26.2
2019-01-20T06:39:16.169Z,26.2
2019-01-20T06:40:05.403Z,26.3
2019-01-20T06:40:56.919Z,26.3
2019-01-20T06:41:46.258Z,26.4
2019-01-20T06:42:35.476Z,26.4
2019-01-20T06:43:25.839Z,26.4
2019-01-20T06:44:15.613Z,26.6
2019-01-20T06:45:05.753Z,26.6
2019-01-20T06:45:55.726Z,26.7
2019-01-20T06:46:46.598Z,26.8
2019-01-20T06:47:35.549Z,26.8
2019-01-20T06:48:26.971Z,26.9
2019-01-20T06:49:16.773Z,26.9
2019-01-20T06:50:05.210Z,26.9
2019-01-20T06:50:56.068Z,27.1
2019-01-20T06:51:46.438Z,27
2019-01-20T06:52:36.437Z,27
2019-01-20T06:53:26.510Z,27
2019-01-20T06:54:16.890Z,27
2019-01-20T06:55:06.638Z,26.9
2019-01-20T06:55:56.985Z,27
2019-01-20T06:56:46.739Z,26.9
2019-01-20T06:57:37.122Z,26.8
2019-01-20T06:58:26.634Z,26.6
2019-01-20T06:59:16.708Z,26.5
2019-01-20T07:00:07.050Z,26.4
2019-01-20T07:00:56.497Z,26.3
2019-01-20T07:01:47.099Z,26.2
2019-01-20T07:02:37.154Z,26.1
2019-01-20T07:03:26.644Z,26.2
2019-01-20T07:04:17.077Z,26.3
2019-01-20T07:06:42.482Z,26.4
2019-01-20T07:07:33.714Z,26.4
2019-01-20T07:08:52.939Z,26.4
2019-01-20T07:09:13.711Z,26.5
2019-01-20T07:10:03.444Z,26.6
2019-01-20T07:10:53.571Z,26.6
2019-01-20T07:11:42.754Z,26.7
2019-01-20T07:12:33.605Z,26.8
2019-01-20T07:13:24.196Z,26.8
2019-01-20T07:14:14.266Z,26.8
2019-01-20T07:15:04.696Z,26.9
2019-01-20T07:15:54.001Z,27
2019-01-20T07:16:44.714Z,27.1
2019-01-20T07:17:34.721Z,27.1
2019-01-20T07:18:38.939Z,27.1
2019-01-20T07:19:28.974Z,27.1
2019-01-20T07:20:04.980Z,27.1
2019-01-20T07:20:54.309Z,27.1
2019-01-20T07:21:44.798Z,27.1
2019-01-20T07:22:34.761Z,27
2019-01-20T07:23:25.077Z,27
2019-01-20T07:24:17.486Z,27
2019-01-20T07:25:04.998Z,26.9
2019-01-20T07:25:55.727Z,26.8
2019-01-20T07:26:44.696Z,26.6
2019-01-20T07:28:04.740Z,26.5
2019-01-20T07:28:24.749Z,26.4
2019-01-20T07:29:44.350Z,26.4
2019-01-20T07:30:05.018Z,26.3
2019-01-20T07:30:55.084Z,26.3
2019-01-20T07:31:59.978Z,26.4
2019-01-20T07:32:35.883Z,26.4
2019-01-20T07:33:25.405Z,26.4
2019-01-20T07:34:15.401Z,26.4
2019-01-20T07:35:04.745Z,26.4
2019-01-20T07:35:55.621Z,26.5
2019-01-20T07:36:45.078Z,26.6
2019-01-20T07:37:34.815Z,26.6
2019-01-20T07:38:24.913Z,26.6
2019-01-20T07:39:15.237Z,26.7
2019-01-20T07:40:06.217Z,26.6
2019-01-20T07:40:55.343Z,26.6
2019-01-20T07:41:46.039Z,26.6
2019-01-20T07:42:36.275Z,26.6
2019-01-20T07:43:26.304Z,26.5
2019-01-20T07:44:15.569Z,26.4
2019-01-20T07:45:05.636Z,26.4
2019-01-20T07:45:55.937Z,26.4
2019-01-20T07:46:45.519Z,26.4
2019-01-20T07:47:36.344Z,26.4
2019-01-20T07:48:25.939Z,26.4
2019-01-20T07:49:15.131Z,26.3
2019-01-20T07:50:20.599Z,26.3
2019-01-20T07:50:55.584Z,26.3
2019-01-20T07:51:45.626Z,26.3
2019-01-20T07:52:36.893Z,26.4
2019-01-20T07:53:26.746Z,26.4
2019-01-20T07:54:15.758Z,26.4
2019-01-20T07:55:06.370Z,26.5
2019-01-20T07:55:58.765Z,26.6
2019-01-20T07:56:46.966Z,26.6
2019-01-20T07:57:37.021Z,26.7
2019-01-20T07:58:27.093Z,26.8
2019-01-20T07:59:16.856Z,26.9
2019-01-20T08:00:06.387Z,26.9
2019-01-20T08:00:58.470Z,26.9
2019-01-20T08:01:47.593Z,26.9
2019-01-20T08:02:37.138Z,26.9
2019-01-20T08:03:26.861Z,26.9
2019-01-20T08:04:17.206Z,26.9
2019-01-20T08:05:07.385Z,26.9
2019-01-20T08:05:57.043Z,26.9
2019-01-20T08:06:47.442Z,26.9
2019-01-20T08:07:36.880Z,26.8
2019-01-20T08:08:27.498Z,26.8
2019-01-20T08:09:17.852Z,26.6
2019-01-20T08:10:08.177Z,26.5
2019-01-20T08:10:58.002Z,26.4
2019-01-20T08:11:48.077Z,26.3
2019-01-20T08:12:38.068Z,26.2
2019-01-20T08:13:31.585Z,26.3
2019-01-20T08:14:17.965Z,26.3
2019-01-20T08:15:06.619Z,26.3
2019-01-20T08:15:57.512Z,26.3
2019-01-20T08:16:47.949Z,26.4
2019-01-20T08:17:37.849Z,26.4
2019-01-20T08:18:28.504Z,26.4
2019-01-20T08:19:17.402Z,26.5
2019-01-20T08:20:08.039Z,26.5
2019-01-20T08:20:58.072Z,26.6
2019-01-20T08:21:48.432Z,26.6
2019-01-20T08:22:39.018Z,26.7
2019-01-20T08:23:28.805Z,26.8
2019-01-20T08:24:18.422Z,26.8
2019-01-20T08:25:08.384Z,26.9
2019-01-20T08:26:00.010Z,27
2019-01-20T08:26:50.704Z,27
2019-01-20T08:27:38.871Z,27
2019-01-20T08:28:28.936Z,27
2019-01-20T08:29:20.299Z,27
2019-01-20T08:30:09.611Z,27
2019-01-20T08:30:59.654Z,27
2019-01-20T08:31:49.394Z,26.9
2019-01-20T08:32:39.604Z,26.9
2019-01-20T08:33:29.201Z,26.9
2019-01-20T08:34:19.533Z,26.9
2019-01-20T08:35:23.695Z,26.8
2019-01-20T08:35:58.658Z,26.6
2019-01-20T08:36:49.570Z,26.4
2019-01-20T08:37:41.081Z,26.3
2019-01-20T08:38:29.571Z,26.3
2019-01-20T08:39:19.630Z,26.3
2019-01-20T08:40:08.563Z,26.3
2019-01-20T08:40:59.178Z,26.3
2019-01-20T08:41:50.472Z,26.3
2019-01-20T08:42:41.250Z,26.4
2019-01-20T08:43:38.015Z,26.4
2019-01-20T08:44:19.942Z,26.4
2019-01-20T08:45:24.730Z,26.4
2019-01-20T08:45:59.823Z,26.4
2019-01-20T08:46:49.857Z,26.5
2019-01-20T08:47:41.325Z,26.6
2019-01-20T08:48:29.713Z,26.6
2019-01-20T08:49:20.375Z,26.7
2019-01-20T08:50:10.680Z,26.7
2019-01-20T08:51:00.872Z,26.8
2019-01-20T08:51:50.199Z,26.8
2019-01-20T08:52:40.292Z,26.9
2019-01-20T08:53:31.817Z,26.9
2019-01-20T08:54:20.656Z,27
2019-01-20T08:55:10.455Z,27
2019-01-20T08:56:02.110Z,26.9
2019-01-20T08:56:51.295Z,27
2019-01-20T08:57:41.423Z,26.9
2019-01-20T08:58:30.747Z,26.9
2019-01-20T08:59:20.987Z,26.9
2019-01-20T09:00:25.417Z,26.9
2019-01-20T09:01:00.812Z,26.8
2019-01-20T09:01:50.850Z,26.8
2019-01-20T09:02:41.256Z,26.6
2019-01-20T09:03:31.046Z,26.4
2019-01-20T09:04:21.665Z,26.3
2019-01-20T09:05:11.399Z,26.3
2019-01-20T09:06:01.504Z,26.2
2019-01-20T09:06:50.954Z,26.2
2019-01-20T09:07:41.589Z,26.2
2019-01-20T09:08:31.144Z,26.3
2019-01-20T09:09:21.427Z,26.3
2019-01-20T09:10:11.181Z,26.3
2019-01-20T09:11:02.096Z,26.3
2019-01-20T09:11:52.199Z,26.4
2019-01-20T09:12:41.463Z,26.4
2019-01-20T09:13:46.439Z,26.4
2019-01-20T09:14:22.399Z,26.6
2019-01-20T09:15:11.636Z,26.6
2019-01-20T09:16:01.883Z,26.7
2019-01-20T09:16:51.933Z,26.7
2019-01-20T09:17:41.998Z,26.8
2019-01-20T09:18:46.994Z,26.8
2019-01-20T09:19:21.855Z,26.9
2019-01-20T09:20:13.245Z,26.9
2019-01-20T09:21:02.243Z,26.9
2019-01-20T09:21:53.198Z,26.9
2019-01-20T09:22:42.613Z,26.9
2019-01-20T09:23:33.018Z,26.9
2019-01-20T09:24:23.323Z,26.8
2019-01-20T09:25:12.488Z,26.7
2019-01-20T09:26:03.389Z,26.5
2019-01-20T09:26:51.765Z,26.4
2019-01-20T09:27:43.011Z,26.3
2019-01-20T09:28:32.718Z,26.2
2019-01-20T09:29:23.360Z,26.1
2019-01-20T09:30:12.869Z,26
2019-01-20T09:31:02.338Z,26
2019-01-20T09:31:53.508Z,26
2019-01-20T09:32:43.627Z,26
2019-01-20T09:33:34.152Z,26.1
2019-01-20T09:34:22.847Z,26.1
2019-01-20T09:35:13.840Z,26.3
2019-01-20T09:36:03.539Z,26.3
2019-01-20T09:36:54.160Z,26.3
2019-01-20T09:37:43.706Z,26.4
2019-01-20T09:38:33.692Z,26.4
2019-01-20T09:39:23.749Z,26.5
2019-01-20T09:40:14.101Z,26.6
2019-01-20T09:41:05.762Z,26.6
2019-01-20T09:41:53.702Z,26.8
2019-01-20T09:42:45.037Z,26.8
2019-01-20T09:43:34.069Z,26.9
2019-01-20T09:44:24.372Z,26.9
2019-01-20T09:45:13.946Z,26.9
2019-01-20T09:46:04.164Z,26.9
2019-01-20T09:46:53.949Z,26.9
2019-01-20T09:47:45.594Z,26.9
2019-01-20T09:48:34.631Z,26.8
2019-01-20T09:49:23.888Z,26.6
2019-01-20T09:50:14.934Z,26.5
2019-01-20T09:51:04.234Z,26.3
2019-01-20T09:51:54.548Z,26.3
2019-01-20T09:52:44.876Z,26.2
2019-01-20T09:53:34.468Z,26.1
2019-01-20T09:54:25.031Z,26
2019-01-20T09:55:14.576Z,25.9
2019-01-20T09:56:04.400Z,25.9
2019-01-20T09:56:54.623Z,25.9
2019-01-20T09:57:45.008Z,26
2019-01-20T09:58:33.993Z,26.1
2019-01-20T09:59:24.046Z,26.1
2019-01-20T10:00:14.868Z,26.2
2019-01-20T10:01:04.506Z,26.3
2019-01-20T10:01:54.953Z,26.3
2019-01-20T10:02:45.073Z,26.4
2019-01-20T10:03:34.545Z,26.4
2019-01-20T10:04:25.750Z,26.6
2019-01-20T10:05:17.256Z,26.6
2019-01-20T10:07:43.740Z,26.8
2019-01-20T10:08:33.813Z,26.9
2019-01-20T10:09:23.565Z,26.9
2019-01-20T10:10:13.943Z,26.9
2019-01-20T10:11:03.208Z,26.9
2019-01-20T10:11:54.030Z,26.9
2019-01-20T10:12:43.780Z,26.9
2019-01-20T10:13:33.873Z,26.8
2019-01-20T10:14:24.197Z,26.6
2019-01-20T10:15:14.316Z,26.5
2019-01-20T10:16:04.055Z,26.4
2019-01-20T10:16:55.952Z,26.3
2019-01-20T10:17:44.480Z,26.2
2019-01-20T10:18:33.944Z,26.1
2019-01-20T10:19:24.273Z,26
2019-01-20T10:20:14.283Z,26
2019-01-20T10:21:04.703Z,26
2019-01-20T10:21:54.744Z,26
2019-01-20T10:22:44.243Z,26.1
2019-01-20T10:23:34.791Z,26.1
2019-01-20T10:24:24.596Z,26.2
2019-01-20T10:25:22.266Z,26.3
2019-01-20T10:26:04.694Z,26.3
2019-01-20T10:26:54.277Z,26.4
2019-01-20T10:27:44.659Z,26.5
2019-01-20T10:28:34.671Z,26.6
2019-01-20T10:29:24.719Z,26.6
2019-01-20T10:30:14.525Z,26.7
2019-01-20T10:31:06.539Z,26.8
2019-01-20T10:31:54.829Z,26.8
2019-01-20T10:32:49.896Z,26.9
2019-01-20T10:33:34.764Z,26.9
2019-01-20T10:34:24.986Z,26.9
2019-01-20T10:35:15.595Z,26.9
2019-01-20T10:36:05.666Z,26.9
2019-01-20T10:36:54.684Z,26.9
2019-01-20T10:37:45.478Z,26.8
2019-01-20T10:38:40.089Z,26.7
2019-01-20T10:39:25.669Z,26.5
2019-01-20T10:40:15.957Z,26.4
2019-01-20T10:41:05.728Z,26.3
2019-01-20T10:41:57.188Z,26.2
2019-01-20T10:42:45.860Z,26.1
2019-01-20T10:43:36.168Z,26
2019-01-20T10:44:26.282Z,25.9
2019-01-20T10:45:16.045Z,25.9
2019-01-20T10:46:05.869Z,25.9
2019-01-20T10:46:55.632Z,26
2019-01-20T10:47:45.715Z,26.1
2019-01-20T10:48:36.326Z,26.1
2019-01-20T10:49:25.550Z,26.2
2019-01-20T10:50:16.148Z,26.3
2019-01-20T10:51:06.453Z,26.3
2019-01-20T10:51:55.890Z,26.4
2019-01-20T10:52:46.027Z,26.4
2019-01-20T10:53:36.580Z,26.6
2019-01-20T10:54:26.955Z,26.6
2019-01-20T10:55:16.763Z,26.7
2019-01-20T10:56:06.491Z,26.8
2019-01-20T10:56:56.034Z,26.8
2019-01-20T10:57:46.399Z,26.9
2019-01-20T10:58:36.449Z,26.9
2019-01-20T10:59:26.977Z,27
2019-01-20T11:00:15.989Z,27
2019-01-20T11:01:06.875Z,27
2019-01-20T11:01:57.449Z,26.9
2019-01-20T11:02:47.019Z,26.9
2019-01-20T11:03:36.779Z,26.8
2019-01-20T11:04:27.088Z,26.6
2019-01-20T11:05:17.175Z,26.4
2019-01-20T11:06:07.262Z,26.3
2019-01-20T11:06:56.446Z,26.2
2019-01-20T11:07:46.984Z,26.1
2019-01-20T11:08:37.883Z,26
2019-01-20T11:09:27.944Z,26
2019-01-20T11:10:17.270Z,25.9
2019-01-20T11:11:07.786Z,25.9
2019-01-20T11:11:58.108Z,26
2019-01-20T11:12:48.599Z,26.1
2019-01-20T11:13:37.666Z,26.1
2019-01-20T11:14:28.273Z,26.2
2019-01-20T11:15:18.113Z,26.3
2019-01-20T11:16:09.718Z,26.3
2019-01-20T11:16:57.615Z,26.4
2019-01-20T11:17:48.025Z,26.4